| time (UTC) | temp C | wind direction | speed KPH | gust KPH | rain 1hr cm | rain 24hr cm | rain mn cm | humidity % | barometer mb |
| 20260902153400 | 30 | 147 | 9.7 | 22.5 | 0.00 | 0.00 | 0.00 | 51 | 1019.2 |
| 20260902152500 | 31 | 132 | 9.7 | 22.5 | 0.00 | 0.00 | 0.00 | 51 | 1019.2 |
| 20260902151600 | 31 | 136 | 11.3 | 22.5 | 0.00 | 0.00 | 0.00 | 51 | 1019.3 |
| 20260902150700 | 31 | 146 | 11.3 | 19.3 | 0.00 | 0.00 | 0.00 | 51 | 1019.3 |
| 20260902145801 | 31 | 139 | 12.9 | 22.5 | 0.00 | 0.00 | 0.00 | 50 | 1019.3 |
| 20260902144900 | 31 | 146 | 12.9 | 24.1 | 0.00 | 0.00 | 0.00 | 50 | 1019.3 |
| 20260902144000 | 31 | 145 | 12.9 | 24.1 | 0.00 | 0.00 | 0.00 | 49 | 1019.4 |
| 20260902142200 | 31 | 151 | 12.9 | 29.0 | 0.00 | 0.00 | 0.00 | 48 | 1019.3 |
| 20260902141300 | 32 | 150 | 11.3 | 24.1 | 0.00 | 0.00 | 0.00 | 47 | 1019.4 |
| 20260902140400 | 32 | 145 | 9.7 | 24.1 | 0.00 | 0.00 | 0.00 | 47 | 1019.3 |
| 20260902135500 | 32 | 120 | 9.7 | 17.7 | 0.00 | 0.00 | 0.00 | 46 | 1019.3 |
| 20260902134600 | 32 | 137 | 11.3 | 20.9 | 0.00 | 0.00 | 0.00 | 46 | 1019.3 |
| 20260902133700 | 32 | 135 | 11.3 | 22.5 | 0.00 | 0.00 | 0.00 | 46 | 1019.3 |
| 20260902132800 | 32 | 132 | 11.3 | 25.7 | 0.00 | 0.00 | 0.00 | 47 | 1019.4 |
| 20260902131900 | 32 | 140 | 11.3 | 24.1 | 0.00 | 0.00 | 0.00 | 46 | 1019.4 |
| 20260902131000 | 32 | 132 | 9.7 | 20.9 | 0.00 | 0.00 | 0.00 | 46 | 1019.4 |
| 20260902130100 | 32 | 132 | 8.0 | 22.5 | 0.00 | 0.00 | 0.00 | 46 | 1019.4 |
| 20260902125200 | 32 | 126 | 6.4 | 17.7 | 0.00 | 0.00 | 0.00 | 46 | 1019.4 |
| 20260902124300 | 32 | 120 | 8.0 | 14.5 | 0.00 | 0.00 | 0.00 | 46 | 1019.4 |
| 20260902122500 | 31 | 145 | 6.4 | 14.5 | 0.00 | 0.00 | 0.00 | 47 | 1019.6 |
| 20260902121600 | 31 | 134 | 9.7 | 16.1 | 0.00 | 0.00 | 0.00 | 47 | 1019.7 |
| 20260902120700 | 31 | 137 | 8.0 | 16.1 | 0.00 | 0.00 | 0.00 | 48 | 1019.7 |
| 20260902114900 | 31 | 135 | 6.4 | 17.7 | 0.00 | 0.00 | 0.00 | 48 | 1019.8 |
| 20260902114000 | 31 | 131 | 4.8 | 16.1 | 0.00 | 0.00 | 0.00 | 48 | 1019.9 |
| 20260902113100 | 31 | 147 | 6.4 | 17.7 | 0.00 | 0.00 | 0.00 | 49 | 1019.8 |
| 20260902112200 | 31 | 146 | 6.4 | 16.1 | 0.00 | 0.00 | 0.00 | 50 | 1019.8 |
| 20260902111300 | 31 | 128 | 8.0 | 19.3 | 0.00 | 0.00 | 0.00 | 49 | 1019.9 |
| 20260902110400 | 31 | 124 | 4.8 | 20.9 | 0.00 | 0.00 | 0.00 | 50 | 1019.9 |
| 20260902105500 | 31 | 128 | 4.8 | 16.1 | 0.00 | 0.00 | 0.00 | 50 | 1019.9 |
| 20260902102800 | 30 | 111 | 4.8 | 16.1 | 0.00 | 0.00 | 0.00 | 49 | 1020.1 |
| 20260902101900 | 30 | 83 | 6.4 | 14.5 | 0.00 | 0.00 | 0.00 | 49 | 1020.1 |
| 20260902100100 | 30 | 122 | 4.8 | 16.1 | 0.00 | 0.00 | 0.00 | 49 | 1020.2 |
| 20260902093400 | 30 | 105 | 4.8 | 14.5 | 0.00 | 0.00 | 0.00 | 51 | 1020.4 |
| 20260902092500 | 30 | 102 | 4.8 | 12.9 | 0.00 | 0.00 | 0.00 | 51 | 1020.3 |
| 20260902091600 | 29 | 103 | 3.2 | 14.5 | 0.00 | 0.00 | 0.00 | 51 | 1020.3 |
| 20260902090700 | 29 | 88 | 3.2 | 11.3 | 0.00 | 0.00 | 0.00 | 52 | 1020.3 |
| 20260902085800 | 29 | 85 | 1.6 | 11.3 | 0.00 | 0.00 | 0.00 | 54 | 1020.2 |
| 20260902084900 | 28 | 82 | 1.6 | 6.4 | 0.00 | 0.00 | 0.00 | 54 | 1020.1 |
| 20260902084000 | 28 | 94 | 1.6 | 8.0 | 0.00 | 0.00 | 0.00 | 56 | 1020.1 |
| 20260902083100 | 28 | 101 | 1.6 | 6.4 | 0.00 | 0.00 | 0.00 | 57 | 1020.1 |
| 20260902082200 | 28 | 170 | 0.0 | 4.8 | 0.00 | 0.00 | 0.00 | 56 | 1020.0 |
| 20260902081300 | 28 | 0 | 0.0 | 0.0 | 0.00 | 0.00 | 0.00 | 57 | 1019.9 |
| 20260902080400 | 27 | 0 | 0.0 | 0.0 | 0.00 | 0.00 | 0.00 | 58 | 1020.0 |
| 20260902074600 | 26 | 228 | 1.6 | 3.2 | 0.00 | 0.00 | 0.00 | 63 | 1019.9 |
| 20260902071000 | 23 | 0 | 1.6 | 0.0 | 0.00 | 0.00 | 0.00 | 72 | 1019.7 |
| 20260902065159 | 22 | 0 | 0.0 | 0.0 | 0.00 | 0.00 | 0.00 | 74 | 1019.7 |
| 20260902060700 | 19 | 228 | 3.2 | 8.0 | 0.00 | 0.00 | 0.00 | 79 | 1019.5 |
| 20260902055759 | 19 | 228 | 0.0 | 6.4 | 0.00 | 0.00 | 0.00 | 80 | 1019.4 |
| 20260902054859 | 19 | 0 | 0.0 | 0.0 | 0.00 | 0.00 | 0.00 | 81 | 1019.3 |
| 20260902053959 | 19 | 228 | 1.6 | 3.2 | 0.00 | 0.00 | 0.00 | 81 | 1019.3 |
| 20260902053100 | 19 | 228 | 3.2 | 4.8 | 0.00 | 0.00 | 0.00 | 81 | 1019.1 |
| 20260902052159 | 19 | 228 | 0.0 | 6.4 | 0.00 | 0.00 | 0.00 | 81 | 1019.1 |
| 20260902051300 | 19 | 0 | 0.0 | 0.0 | 0.00 | 0.00 | 0.00 | 82 | 1019.1 |
| 20260902045500 | 18 | 0 | 0.0 | 0.0 | 0.00 | 0.00 | 0.00 | 82 | 1018.9 |
| 20260902044559 | 19 | 0 | 1.6 | 0.0 | 0.00 | 0.00 | 0.00 | 81 | 1018.9 |
| 20260902041900 | 19 | 225 | 4.8 | 9.7 | 0.00 | 0.00 | 0.00 | 82 | 1018.9 |
| 20260902041000 | 19 | 236 | 3.2 | 9.7 | 0.00 | 0.00 | 0.00 | 82 | 1018.9 |
| 20260902040059 | 19 | 255 | 3.2 | 8.0 | 0.00 | 0.00 | 0.00 | 82 | 1018.9 |
| 20260902034259 | 19 | 301 | 0.0 | 6.4 | 0.00 | 0.00 | 0.00 | 82 | 1018.9 |
| 20260902033359 | 19 | 0 | 0.0 | 0.0 | 0.00 | 0.00 | 0.00 | 82 | 1018.9 |
| 20260902032500 | 19 | 0 | 1.6 | 0.0 | 0.00 | 0.00 | 0.00 | 82 | 1018.9 |
| 20260902031600 | 19 | 32 | 4.8 | 6.4 | 0.00 | 0.00 | 0.00 | 82 | 1019.0 |
| 20260902030659 | 19 | 62 | 3.2 | 6.4 | 0.00 | 0.00 | 0.00 | 81 | 1019.0 |
| 20260902025759 | 19 | 67 | 1.6 | 6.4 | 0.00 | 0.00 | 0.00 | 82 | 1019.1 |
| 20260902024859 | 19 | 74 | 0.0 | 4.8 | 0.00 | 0.00 | 0.00 | 83 | 1019.0 |
| 20260902023959 | 19 | 0 | 0.0 | 0.0 | 0.00 | 0.00 | 0.00 | 83 | 1019.1 |
| 20260902023059 | 20 | 0 | 0.0 | 0.0 | 0.00 | 0.00 | 0.00 | 84 | 1019.0 |
| 20260902022159 | 20 | 0 | 0.0 | 0.0 | 0.00 | 0.00 | 0.00 | 83 | 1019.1 |
| 20260902020359 | 20 | 0 | 0.0 | 0.0 | 0.00 | 0.00 | 0.00 | 83 | 1019.1 |
| 20260902014559 | 20 | 0 | 0.0 | 0.0 | 0.00 | 0.00 | 0.00 | 82 | 1019.1 |
| 20260902013659 | 20 | 0 | 0.0 | 0.0 | 0.00 | 0.00 | 0.00 | 82 | 1019.1 |
| 20260902012759 | 20 | 0 | 0.0 | 0.0 | 0.00 | 0.00 | 0.00 | 82 | 1019.1 |
| 20260902011859 | 20 | 0 | 0.0 | 0.0 | 0.00 | 0.00 | 0.00 | 81 | 1019.1 |
| 20260902010059 | 20 | 0 | 0.0 | 0.0 | 0.00 | 0.00 | 0.00 | 81 | 1019.1 |
| 20260902005200 | 20 | 0 | 0.0 | 0.0 | 0.00 | 0.00 | 0.00 | 81 | 1019.2 |
| 20260902004259 | 20 | 0 | 0.0 | 0.0 | 0.00 | 0.00 | 0.00 | 81 | 1019.2 |
| 20260902002459 | 20 | 0 | 0.0 | 0.0 | 0.00 | 0.00 | 0.00 | 83 | 1019.2 |
| 20260902001559 | 20 | 0 | 0.0 | 0.0 | 0.00 | 0.00 | 0.00 | 82 | 1019.2 |
| 20260902000659 | 20 | 0 | 0.0 | 0.0 | 0.00 | 0.00 | 0.00 | 82 | 1019.2 |
| 20260901235759 | 21 | 0 | 0.0 | 0.0 | 0.00 | 0.00 | 0.00 | 82 | 1019.1 |
| 20260901233959 | 21 | 75 | 1.6 | 4.8 | 0.00 | 0.00 | 0.00 | 82 | 1019.1 |
| 20260901233059 | 21 | 75 | 1.6 | 3.2 | 0.00 | 0.00 | 0.00 | 82 | 1019.0 |
| 20260901232159 | 21 | 74 | 0.0 | 3.2 | 0.00 | 0.00 | 0.00 | 82 | 1019.0 |
| 20260901231259 | 21 | 74 | 1.6 | 4.8 | 0.00 | 0.00 | 0.00 | 81 | 1019.0 |
| 20260901230359 | 22 | 71 | 0.0 | 6.4 | 0.00 | 0.00 | 0.00 | 81 | 1019.0 |
| 20260901225459 | 22 | 0 | 0.0 | 0.0 | 0.00 | 0.00 | 0.00 | 80 | 1019.0 |
| 20260901224559 | 22 | 0 | 0.0 | 0.0 | 0.00 | 0.00 | 0.00 | 80 | 1018.8 |
| 20260901223659 | 22 | 0 | 0.0 | 0.0 | 0.00 | 0.00 | 0.00 | 80 | 1018.7 |
| 20260901222759 | 22 | 0 | 0.0 | 0.0 | 0.00 | 0.00 | 0.00 | 80 | 1018.7 |
| 20260901221859 | 22 | 0 | 0.0 | 0.0 | 0.00 | 0.00 | 0.00 | 80 | 1018.8 |
| 20260901220959 | 22 | 0 | 0.0 | 0.0 | 0.00 | 0.00 | 0.00 | 79 | 1018.6 |
| 20260901220059 | 22 | 0 | 0.0 | 0.0 | 0.00 | 0.00 | 0.00 | 79 | 1018.5 |
| 20260901215159 | 22 | 0 | 0.0 | 0.0 | 0.00 | 0.00 | 0.00 | 78 | 1018.5 |
| 20260901214259 | 22 | 0 | 0.0 | 0.0 | 0.00 | 0.00 | 0.00 | 77 | 1018.3 |
| 20260901213359 | 23 | 0 | 0.0 | 0.0 | 0.00 | 0.00 | 0.00 | 77 | 1018.2 |
| 20260901212459 | 23 | 0 | 1.6 | 0.0 | 0.00 | 0.00 | 0.00 | 76 | 1018.1 |
| 20260901211559 | 23 | 80 | 1.6 | 6.4 | 0.00 | 0.00 | 0.00 | 76 | 1018.0 |
| 20260901203059 | 24 | 0 | 0.0 | 0.0 | 0.00 | 0.00 | 0.00 | 76 | 1018.2 |
| 20260901202159 | 24 | 0 | 0.0 | 0.0 | 0.00 | 0.00 | 0.00 | 76 | 1018.2 |
| 20260901201259 | 24 | 0 | 0.0 | 0.0 | 0.00 | 0.00 | 0.00 | 77 | 1018.3 |
| 20260901200359 | 24 | 0 | 0.0 | 0.0 | 0.00 | 0.00 | 0.00 | 77 | 1018.1 |
| 20260901195459 | 24 | 0 | 0.0 | 0.0 | 0.00 | 0.00 | 0.00 | 76 | 1018.0 |
| 20260901193659 | 25 | 85 | 0.0 | 4.8 | 0.00 | 0.00 | 0.00 | 74 | 1017.6 |
| 20260901192759 | 25 | 0 | 0.0 | 0.0 | 0.00 | 0.00 | 0.00 | 74 | 1017.6 |
| 20260901191859 | 25 | 0 | 0.0 | 0.0 | 0.00 | 0.00 | 0.00 | 74 | 1017.6 |
| 20260901190959 | 25 | 84 | 1.6 | 4.8 | 0.00 | 0.00 | 0.00 | 73 | 1017.5 |
| 20260901185159 | 25 | 0 | 0.0 | 0.0 | 0.00 | 0.00 | 0.00 | 73 | 1017.2 |
| 20260901184259 | 25 | 98 | 1.6 | 6.4 | 0.00 | 0.00 | 0.00 | 72 | 1017.3 |
| 20260901183359 | 26 | 108 | 0.0 | 6.4 | 0.00 | 0.00 | 0.00 | 71 | 1017.3 |
| 20260901180659 | 26 | 117 | 4.8 | 9.7 | 0.00 | 0.00 | 0.00 | 70 | 1017.4 |
| 20260901175759 | 26 | 114 | 6.4 | 11.3 | 0.00 | 0.00 | 0.00 | 70 | 1017.3 |
| 20260901174859 | 26 | 112 | 8.0 | 12.9 | 0.00 | 0.00 | 0.00 | 70 | 1017.3 |
| 20260901173959 | 26 | 112 | 8.0 | 16.1 | 0.00 | 0.00 | 0.00 | 70 | 1017.5 |
| 20260901172159 | 26 | 119 | 8.0 | 16.1 | 0.00 | 0.00 | 0.00 | 69 | 1017.8 |
| 20260901170359 | 26 | 111 | 8.0 | 16.1 | 0.00 | 0.00 | 0.00 | 68 | 1017.6 |
| 20260901165459 | 26 | 110 | 9.7 | 14.5 | 0.00 | 0.00 | 0.00 | 68 | 1017.5 |
| 20260901164559 | 26 | 122 | 8.0 | 16.1 | 0.00 | 0.00 | 0.00 | 67 | 1017.6 |
| 20260901163659 | 27 | 126 | 8.0 | 16.1 | 0.00 | 0.00 | 0.00 | 66 | 1017.7 |
| 20260901162759 | 27 | 137 | 9.7 | 19.3 | 0.00 | 0.00 | 0.00 | 66 | 1017.8 |
| 20260901161859 | 27 | 131 | 11.3 | 20.9 | 0.00 | 0.00 | 0.00 | 66 | 1017.8 |
| 20260901160959 | 26 | 122 | 9.7 | 17.7 | 0.00 | 0.00 | 0.00 | 65 | 1017.7 |
| 20260901160059 | 27 | 130 | 9.7 | 19.3 | 0.00 | 0.00 | 0.00 | 65 | 1017.7 |
| 20260901155159 | 26 | 122 | 11.3 | 17.7 | 0.00 | 0.00 | 0.00 | 65 | 1017.7 |
| 20260901154259 | 27 | 115 | 11.3 | 19.3 | 0.00 | 0.00 | 0.00 | 64 | 1017.6 |